createdAt,value
2023-12-07T00:02:22.749Z,9.37
2023-12-07T00:04:49.252Z,8.73
2023-12-07T00:07:15.741Z,8.73
2023-12-07T00:09:42.212Z,8.13
2023-12-07T00:12:11.379Z,8.10
2023-12-07T00:14:37.749Z,7.83
2023-12-07T00:17:04.320Z,8.23
2023-12-07T00:19:30.855Z,8.47
2023-12-07T00:21:57.335Z,8.43
2023-12-07T00:24:23.741Z,8.07
2023-12-07T00:26:50.630Z,8.23
2023-12-07T00:29:17.079Z,9.57
2023-12-07T00:31:44.912Z,9.30
2023-12-07T00:34:11.410Z,8.97
2023-12-07T00:36:37.884Z,8.83
2023-12-07T00:39:05.259Z,9.03
2023-12-07T00:41:31.710Z,8.60
2023-12-07T00:43:58.143Z,8.43
2023-12-07T00:46:24.668Z,8.30
2023-12-07T00:48:51.104Z,8.53
2023-12-07T00:51:18.055Z,9.97
2023-12-07T00:53:44.462Z,9.30
2023-12-07T00:56:11.026Z,9.10
2023-12-07T00:58:39.469Z,9.87
2023-12-07T01:01:06.228Z,9.07
2023-12-07T01:03:32.664Z,9.30
2023-12-07T01:05:59.151Z,10.03
2023-12-07T01:08:25.775Z,9.27
2023-12-07T01:10:52.331Z,9.87
2023-12-07T01:13:18.819Z,9.83
2023-12-07T01:15:45.279Z,8.87
2023-12-07T01:18:11.744Z,9.70
2023-12-07T01:20:38.196Z,9.03
2023-12-07T01:23:04.616Z,9.80
2023-12-07T01:25:31.207Z,9.63
2023-12-07T01:27:58.010Z,10.07
2023-12-07T01:30:24.491Z,9.13
2023-12-07T01:32:50.944Z,10.77
2023-12-07T01:35:17.482Z,9.87
2023-12-07T01:41:09.582Z,10.30
2023-12-07T01:43:36.162Z,9.53
2023-12-07T01:46:03.049Z,10.30
2023-12-07T01:48:30.469Z,10.00
2023-12-07T01:50:59.141Z,10.40
2023-12-07T01:53:27.563Z,10.63
2023-12-07T01:55:54.818Z,10.87
2023-12-07T01:58:21.830Z,10.97
2023-12-07T02:00:48.669Z,11.37
2023-12-07T02:03:17.530Z,11.23
2023-12-07T02:05:47.026Z,11.43
2023-12-07T02:08:13.441Z,12.30
2023-12-07T02:10:40.174Z,12.80
2023-12-07T02:13:07.694Z,12.10
2023-12-07T02:15:34.376Z,13.33
2023-12-07T02:18:22.677Z,13.30
2023-12-07T02:21:09.242Z,12.80
2023-12-07T02:23:46.610Z,12.73
2023-12-07T02:26:20.678Z,12.50
2023-12-07T02:28:47.315Z,12.97
2023-12-07T02:31:14.338Z,12.17
2023-12-07T02:33:40.959Z,14.00
2023-12-07T02:36:07.755Z,12.17
2023-12-07T02:38:35.267Z,12.67
2023-12-07T02:41:02.486Z,11.97
2023-12-07T02:43:29.774Z,12.80
2023-12-07T02:45:56.430Z,11.80
2023-12-07T02:48:23.300Z,12.17
2023-12-07T02:50:49.818Z,11.90
2023-12-07T02:53:16.640Z,11.00
2023-12-07T02:55:43.087Z,11.27
2023-12-07T02:58:10.126Z,11.87
2023-12-07T03:00:36.584Z,11.17
2023-12-07T03:03:03.062Z,11.47
2023-12-07T03:05:29.506Z,12.90
2023-12-07T03:07:55.968Z,11.60
2023-12-07T03:10:22.422Z,13.90
2023-12-07T03:12:48.831Z,12.80
2023-12-07T03:15:15.297Z,13.00
2023-12-07T03:17:41.761Z,14.40
2023-12-07T03:20:09.466Z,13.43
2023-12-07T03:22:35.935Z,14.13
2023-12-07T03:25:02.529Z,15.10
2023-12-07T03:27:29.952Z,14.50
2023-12-07T03:29:56.524Z,12.27
2023-12-07T03:32:23.264Z,13.00
2023-12-07T03:34:49.947Z,12.50
2023-12-07T03:37:17.215Z,12.90
2023-12-07T03:39:43.717Z,14.20
2023-12-07T03:42:48.442Z,13.90
2023-12-07T03:44:56.783Z,13.10
2023-12-07T03:47:23.295Z,13.67
2023-12-07T03:49:49.828Z,15.07
2023-12-07T03:52:16.303Z,14.70
2023-12-07T03:54:42.741Z,13.13
2023-12-07T03:57:09.140Z,13.00
2023-12-07T03:59:37.618Z,13.30
2023-12-07T04:02:04.342Z,13.83
2023-12-07T04:04:30.808Z,13.70
2023-12-07T04:06:57.514Z,13.97
2023-12-07T04:09:24.464Z,14.80
2023-12-07T04:11:50.854Z,13.80
2023-12-07T04:14:17.249Z,14.30
2023-12-07T04:16:43.734Z,15.33
2023-12-07T04:19:10.187Z,14.20
2023-12-07T04:21:36.642Z,14.43
2023-12-07T04:24:03.162Z,13.83
2023-12-07T04:26:29.658Z,13.17
2023-12-07T04:28:56.105Z,14.70
2023-12-07T04:31:22.602Z,14.80
2023-12-07T04:33:49.289Z,15.83
2023-12-07T04:36:15.722Z,16.20
2023-12-07T04:38:42.162Z,16.47
2023-12-07T04:41:08.685Z,15.93
2023-12-07T04:43:35.206Z,17.57
2023-12-07T04:46:01.763Z,15.33
2023-12-07T04:48:28.183Z,18.20
2023-12-07T04:50:54.637Z,15.47
2023-12-07T04:53:21.046Z,16.90
2023-12-07T04:55:51.137Z,17.40
2023-12-07T04:58:17.578Z,17.90
2023-12-07T05:00:44.182Z,16.50
2023-12-07T05:03:10.635Z,16.57
2023-12-07T05:05:37.568Z,18.00
2023-12-07T05:08:04.224Z,18.97
2023-12-07T05:10:30.989Z,18.37
2023-12-07T05:12:58.180Z,18.50
2023-12-07T05:15:25.720Z,18.27
2023-12-07T05:17:52.237Z,17.93
2023-12-07T05:20:23.261Z,17.30
2023-12-07T05:22:49.720Z,17.70
2023-12-07T05:25:16.846Z,19.40
2023-12-07T05:27:43.356Z,17.70
2023-12-07T05:30:10.349Z,17.50
2023-12-07T05:32:36.881Z,15.93
2023-12-07T05:35:03.505Z,16.90
2023-12-07T05:37:29.931Z,17.30
2023-12-07T05:39:56.761Z,18.80
2023-12-07T05:42:23.378Z,18.20
2023-12-07T05:44:49.910Z,19.20
2023-12-07T05:47:16.462Z,18.10
2023-12-07T05:49:42.923Z,18.83
2023-12-07T05:52:09.468Z,19.73
2023-12-07T05:54:35.861Z,19.20
2023-12-07T05:57:03.080Z,19.37
2023-12-07T05:59:29.479Z,20.17
2023-12-07T06:01:55.985Z,20.03
2023-12-07T06:04:22.488Z,21.00
2023-12-07T06:06:49.005Z,19.50
2023-12-07T06:09:15.585Z,19.90
2023-12-07T06:11:42.027Z,19.10
2023-12-07T06:14:08.840Z,19.43
2023-12-07T06:16:35.294Z,18.57
2023-12-07T06:19:01.775Z,19.37
2023-12-07T06:21:30.721Z,20.00
2023-12-07T06:23:57.255Z,18.47
2023-12-07T06:26:23.766Z,17.60
2023-12-07T06:28:50.161Z,19.33
2023-12-07T06:31:20.867Z,18.30
2023-12-07T06:33:47.297Z,16.90
2023-12-07T06:36:22.196Z,19.70
2023-12-07T06:38:48.854Z,19.43
2023-12-07T06:41:16.879Z,18.90
2023-12-07T06:43:45.598Z,17.20
2023-12-07T06:46:14.288Z,19.03
2023-12-07T06:48:42.380Z,19.70
2023-12-07T06:51:08.975Z,19.00
2023-12-07T06:53:35.385Z,18.57
2023-12-07T06:56:01.847Z,18.90
2023-12-07T06:58:28.247Z,21.03
2023-12-07T07:00:54.663Z,18.90
2023-12-07T07:03:21.160Z,18.40
2023-12-07T07:05:47.615Z,22.43
2023-12-07T07:08:14.043Z,21.40
2023-12-07T07:10:40.506Z,20.87
2023-12-07T07:13:07.506Z,20.97
2023-12-07T07:15:34.682Z,19.20
2023-12-07T07:18:02.387Z,19.10
2023-12-07T07:20:28.916Z,17.20
2023-12-07T07:22:55.340Z,19.73
2023-12-07T07:25:21.787Z,18.90
2023-12-07T07:27:48.258Z,19.60
2023-12-07T07:30:14.888Z,19.40
2023-12-07T07:32:41.885Z,19.33
2023-12-07T07:35:08.809Z,16.40
2023-12-07T07:37:35.336Z,16.67
2023-12-07T07:40:02.144Z,16.07
2023-12-07T07:42:28.550Z,14.30
2023-12-07T07:44:54.977Z,14.20
2023-12-07T07:47:21.371Z,13.20
2023-12-07T07:49:47.809Z,14.93
2023-12-07T07:52:14.370Z,15.23
2023-12-07T07:54:40.828Z,15.03
2023-12-07T07:57:07.236Z,16.83
2023-12-07T07:59:33.681Z,17.20
2023-12-07T08:02:00.407Z,17.03
2023-12-07T08:04:26.893Z,16.50
2023-12-07T08:06:53.549Z,16.60
2023-12-07T08:09:19.936Z,15.70
2023-12-07T08:11:46.324Z,16.90
2023-12-07T08:14:13.863Z,15.53
2023-12-07T08:16:43.950Z,14.10
2023-12-07T08:19:10.420Z,15.50
2023-12-07T08:21:36.947Z,15.97
2023-12-07T08:24:04.626Z,13.80
2023-12-07T08:26:31.027Z,14.77
2023-12-07T08:28:57.457Z,15.63
2023-12-07T08:31:25.250Z,13.80
2023-12-07T08:33:52.740Z,13.63
2023-12-07T08:36:19.314Z,12.80
2023-12-07T08:38:45.801Z,14.53
2023-12-07T08:41:14.440Z,14.40
2023-12-07T08:43:41.133Z,12.80
2023-12-07T08:46:08.621Z,13.73
2023-12-07T08:48:37.252Z,12.60
2023-12-07T08:51:05.240Z,12.20
2023-12-07T08:53:31.879Z,12.20
2023-12-07T08:55:58.571Z,11.90
2023-12-07T08:58:25.043Z,11.70
2023-12-07T09:00:51.924Z,12.33
2023-12-07T09:03:18.391Z,14.13
2023-12-07T09:05:45.025Z,16.20
2023-12-07T09:08:11.644Z,13.50
2023-12-07T09:10:38.217Z,14.20
2023-12-07T09:13:04.712Z,12.27
2023-12-07T09:15:32.620Z,12.87
2023-12-07T09:17:59.395Z,15.23
2023-12-07T09:20:25.965Z,14.20
2023-12-07T09:22:52.892Z,14.00
2023-12-07T09:25:19.478Z,15.17
2023-12-07T09:27:46.016Z,14.10
2023-12-07T09:30:13.690Z,12.73
2023-12-07T09:32:43.422Z,13.20
2023-12-07T09:35:16.183Z,13.03
2023-12-07T09:37:43.243Z,13.67
2023-12-07T09:40:16.348Z,12.77
2023-12-07T09:42:43.832Z,13.07
2023-12-07T09:45:10.743Z,12.77
2023-12-07T09:47:39.077Z,13.87
2023-12-07T09:50:13.128Z,13.33
2023-12-07T09:52:41.161Z,13.27
2023-12-07T09:55:10.809Z,13.17
2023-12-07T09:57:40.662Z,13.30
2023-12-07T10:00:11.010Z,14.73
2023-12-07T10:02:40.466Z,14.50
2023-12-07T10:05:12.014Z,14.27
2023-12-07T10:07:41.894Z,14.63
2023-12-07T10:10:11.015Z,13.20
2023-12-07T10:12:47.512Z,12.37
2023-12-07T10:15:15.649Z,12.83
2023-12-07T10:17:59.581Z,13.70
2023-12-07T10:20:28.249Z,14.47
2023-12-07T10:23:07.350Z,14.27
2023-12-07T10:25:39.195Z,13.40
2023-12-07T10:28:08.604Z,13.77
2023-12-07T10:30:36.087Z,12.90
2023-12-07T10:33:06.277Z,13.80
2023-12-07T10:35:32.968Z,12.60
2023-12-07T10:37:59.598Z,12.93
2023-12-07T10:40:26.180Z,14.20
2023-12-07T10:42:57.538Z,12.80
2023-12-07T10:45:26.305Z,13.90
2023-12-07T10:47:54.846Z,13.07
2023-12-07T10:50:24.392Z,13.10
2023-12-07T10:52:57.009Z,14.03
2023-12-07T10:55:29.973Z,13.20
2023-12-07T10:57:57.288Z,13.20
2023-12-07T11:00:37.624Z,14.17
2023-12-07T11:03:11.544Z,14.40
2023-12-07T11:05:38.664Z,13.27
2023-12-07T11:08:10.980Z,12.23
2023-12-07T11:10:49.464Z,14.37
2023-12-07T11:13:21.378Z,13.50
2023-12-07T11:15:47.989Z,12.30
2023-12-07T11:18:15.517Z,13.00
2023-12-07T11:20:49.787Z,11.43
2023-12-07T11:23:22.097Z,13.30
2023-12-07T11:25:49.570Z,11.80
2023-12-07T11:28:16.254Z,13.83
2023-12-07T11:30:45.211Z,12.70
2023-12-07T11:33:13.252Z,13.70
2023-12-07T11:36:04.281Z,14.67
2023-12-07T11:38:30.831Z,13.53
2023-12-07T11:40:57.838Z,13.57
2023-12-07T11:43:33.423Z,13.70
2023-12-07T11:46:00.767Z,13.57
2023-12-07T11:48:27.443Z,14.30
2023-12-07T11:51:01.631Z,13.00
2023-12-07T11:53:36.131Z,13.73
2023-12-07T11:56:04.796Z,19.27
2023-12-07T11:58:36.199Z,17.57
2023-12-07T12:01:05.740Z,14.80
2023-12-07T12:03:37.242Z,13.23
2023-12-07T12:06:06.194Z,13.70
2023-12-07T12:08:32.952Z,15.43
2023-12-07T12:10:59.537Z,13.90
2023-12-07T12:13:30.900Z,15.20
2023-12-07T12:16:01.564Z,13.43
2023-12-07T12:18:30.519Z,14.27
2023-12-07T12:20:58.686Z,14.77
2023-12-07T12:23:25.270Z,14.30
2023-12-07T12:25:52.297Z,12.50
2023-12-07T12:28:22.897Z,12.97
2023-12-07T12:30:49.853Z,13.53
2023-12-07T12:33:17.579Z,14.80
2023-12-07T12:35:44.213Z,12.90
2023-12-07T12:38:16.053Z,14.07
2023-12-07T12:40:46.201Z,13.47
2023-12-07T12:43:12.696Z,14.97
2023-12-07T12:45:39.700Z,13.47
2023-12-07T12:48:06.418Z,14.30
2023-12-07T12:50:40.942Z,14.77
2023-12-07T12:53:11.977Z,14.90
2023-12-07T12:55:40.993Z,13.50
2023-12-07T12:58:09.371Z,14.20
2023-12-07T13:00:39.315Z,12.20
2023-12-07T13:03:07.223Z,13.47
2023-12-07T13:05:35.558Z,12.73
2023-12-07T13:08:12.267Z,12.83
2023-12-07T13:10:42.296Z,12.40
2023-12-07T13:13:09.036Z,14.17
2023-12-07T13:15:35.821Z,13.23
2023-12-07T13:18:05.602Z,13.70
2023-12-07T13:20:45.846Z,13.70
2023-12-07T13:23:16.658Z,13.30
2023-12-07T13:25:43.252Z,13.30
2023-12-07T13:28:12.938Z,11.90
2023-12-07T13:30:40.135Z,13.30
2023-12-07T13:33:18.176Z,12.40
2023-12-07T13:35:53.248Z,13.10
2023-12-07T13:38:21.390Z,13.97
2023-12-07T13:40:48.190Z,13.57
2023-12-07T13:43:14.872Z,13.20
2023-12-07T13:45:44.863Z,13.30
2023-12-07T13:48:11.428Z,12.70
2023-12-07T13:50:37.995Z,13.40
2023-12-07T13:53:04.711Z,13.23
2023-12-07T13:55:31.420Z,14.10
2023-12-07T13:57:58.596Z,13.23
2023-12-07T14:00:25.333Z,13.50
2023-12-07T14:02:52.025Z,14.17
2023-12-07T14:05:22.696Z,12.67
2023-12-07T14:07:49.533Z,12.30
2023-12-07T14:10:16.361Z,13.20
2023-12-07T14:12:42.864Z,13.00
2023-12-07T14:15:10.803Z,12.27
2023-12-07T14:17:47.232Z,12.70
2023-12-07T14:20:28.675Z,13.97
2023-12-07T14:23:06.180Z,12.70
2023-12-07T14:25:32.719Z,11.90
2023-12-07T14:27:59.588Z,12.70
2023-12-07T14:30:26.163Z,13.47
2023-12-07T14:32:53.519Z,12.20
2023-12-07T14:35:21.433Z,12.73
2023-12-07T14:37:48.807Z,11.87
2023-12-07T14:40:18.736Z,12.47
2023-12-07T14:42:46.252Z,13.20
2023-12-07T14:45:12.913Z,14.00
2023-12-07T14:47:39.681Z,12.87
2023-12-07T14:50:06.942Z,12.57
2023-12-07T14:52:33.536Z,26.60
2023-12-07T14:55:00.524Z,22.50
2023-12-07T14:57:26.953Z,14.90
2023-12-07T14:59:55.247Z,14.87
2023-12-07T15:02:22.075Z,12.70
2023-12-07T15:04:49.953Z,13.20
2023-12-07T15:07:17.697Z,13.27
2023-12-07T15:09:44.225Z,12.83
2023-12-07T15:12:10.701Z,13.10
2023-12-07T15:14:38.917Z,14.20
2023-12-07T15:17:09.724Z,13.03
2023-12-07T15:19:40.205Z,14.00
2023-12-07T15:22:07.752Z,13.70
2023-12-07T15:24:36.530Z,12.80
2023-12-07T15:27:05.067Z,13.80
2023-12-07T15:29:32.250Z,13.40
2023-12-07T15:31:58.766Z,13.03
2023-12-07T15:34:33.418Z,13.20
2023-12-07T15:37:05.207Z,12.90
2023-12-07T15:39:31.821Z,13.77
2023-12-07T15:41:59.118Z,12.90
2023-12-07T15:44:29.611Z,13.53
2023-12-07T15:46:58.649Z,12.83
2023-12-07T15:49:25.663Z,12.37
2023-12-07T15:51:53.114Z,13.20
2023-12-07T15:54:30.969Z,14.20
2023-12-07T15:57:04.404Z,14.20
2023-12-07T15:59:30.886Z,14.27
2023-12-07T16:01:57.314Z,13.07
2023-12-07T16:04:31.893Z,13.23
2023-12-07T16:07:03.854Z,12.87
2023-12-07T16:09:31.507Z,13.97
2023-12-07T16:11:58.177Z,26.63
2023-12-07T16:14:29.982Z,21.87
2023-12-07T16:16:58.685Z,13.80
2023-12-07T16:19:25.929Z,14.17
2023-12-07T16:21:52.695Z,12.93
2023-12-07T16:24:19.597Z,13.40
2023-12-07T16:26:46.092Z,14.20
2023-12-07T16:29:12.641Z,14.00
2023-12-07T16:31:39.052Z,14.00
2023-12-07T16:34:05.693Z,14.20
2023-12-07T16:36:32.248Z,14.00
2023-12-07T16:39:02.674Z,14.23
2023-12-07T16:41:34.492Z,13.33
2023-12-07T16:44:05.416Z,14.07
2023-12-07T16:46:31.817Z,15.10
2023-12-07T16:48:58.273Z,14.40
2023-12-07T16:51:24.938Z,13.93
2023-12-07T16:53:51.613Z,16.03
2023-12-07T16:56:18.153Z,16.33
2023-12-07T16:58:44.526Z,14.80
2023-12-07T17:01:11.480Z,16.40
2023-12-07T17:03:38.983Z,14.97
2023-12-07T17:06:07.305Z,15.23
2023-12-07T17:08:33.973Z,16.30
2023-12-07T17:11:00.509Z,16.07
2023-12-07T17:13:27.393Z,15.33
2023-12-07T17:15:56.514Z,15.50
2023-12-07T17:18:24.790Z,16.60
2023-12-07T17:20:51.587Z,16.10
2023-12-07T17:23:18.530Z,17.27
2023-12-07T17:25:45.024Z,17.00
2023-12-07T17:28:11.560Z,15.97
2023-12-07T17:30:38.071Z,15.93
2023-12-07T17:33:04.713Z,14.63
2023-12-07T17:35:31.283Z,15.40
2023-12-07T17:37:58.357Z,16.83
2023-12-07T17:40:24.778Z,16.53
2023-12-07T17:42:51.200Z,15.40
2023-12-07T17:45:18.156Z,15.60
2023-12-07T17:47:46.591Z,15.47
2023-12-07T17:50:13.284Z,16.87
2023-12-07T17:52:39.708Z,16.47
2023-12-07T17:55:06.274Z,17.40
2023-12-07T17:57:32.732Z,15.63
2023-12-07T17:59:59.171Z,16.07
2023-12-07T18:02:25.693Z,16.80
2023-12-07T18:04:52.180Z,17.30
2023-12-07T18:07:18.590Z,17.83
2023-12-07T18:09:45.141Z,17.20
2023-12-07T18:12:12.205Z,16.43
2023-12-07T18:14:38.833Z,15.67
2023-12-07T18:17:07.241Z,16.73
2023-12-07T18:19:33.676Z,16.90
2023-12-07T18:22:00.724Z,17.40
2023-12-07T18:24:27.227Z,16.27
2023-12-07T18:26:53.763Z,16.40
2023-12-07T18:29:20.206Z,15.43
2023-12-07T18:31:49.369Z,15.63
2023-12-07T18:34:15.890Z,15.13
2023-12-07T18:36:43.003Z,16.80
2023-12-07T18:39:09.999Z,18.10
2023-12-07T18:41:37.511Z,18.43
2023-12-07T18:44:04.300Z,19.27
2023-12-07T18:46:31.073Z,17.80
2023-12-07T18:48:58.369Z,16.77
2023-12-07T18:51:26.090Z,17.70
2023-12-07T18:53:52.616Z,18.80
2023-12-07T18:56:19.138Z,21.03
2023-12-07T18:58:45.627Z,19.50
2023-12-07T19:01:12.238Z,20.60
2023-12-07T19:03:39.675Z,21.70
2023-12-07T19:06:06.969Z,19.97
2023-12-07T19:08:33.632Z,19.00
2023-12-07T19:11:00.025Z,21.97
2023-12-07T19:13:26.427Z,19.90
2023-12-07T19:15:52.997Z,19.50
2023-12-07T19:18:19.994Z,19.53
2023-12-07T19:20:46.679Z,20.43
2023-12-07T19:23:13.164Z,19.60
2023-12-07T19:25:39.801Z,19.63
2023-12-07T19:28:07.144Z,20.93
2023-12-07T19:30:33.696Z,22.43
2023-12-07T19:33:03.746Z,21.23
2023-12-07T19:35:30.785Z,22.37
2023-12-07T19:37:57.384Z,21.10
2023-12-07T19:40:23.889Z,22.90
2023-12-07T19:42:50.356Z,23.27
2023-12-07T19:45:16.878Z,25.40
2023-12-07T19:47:44.168Z,20.90
2023-12-07T19:50:12.005Z,26.07
2023-12-07T19:52:38.527Z,25.10
2023-12-07T19:55:07.575Z,22.30
2023-12-07T19:57:34.744Z,22.40
2023-12-07T20:00:01.333Z,19.97
2023-12-07T20:02:27.875Z,20.30
2023-12-07T20:04:54.486Z,22.13
2023-12-07T20:07:20.977Z,22.00
2023-12-07T20:09:47.704Z,19.37
2023-12-07T20:12:14.808Z,21.23
2023-12-07T20:14:41.378Z,26.50
2023-12-07T20:17:08.488Z,22.20
2023-12-07T20:19:35.492Z,22.20
2023-12-07T20:22:03.660Z,23.23
2023-12-07T20:24:30.195Z,21.50
2023-12-07T20:26:56.921Z,20.20
2023-12-07T20:29:27.079Z,21.80
2023-12-07T20:31:53.661Z,22.50
2023-12-07T20:34:20.118Z,20.90
2023-12-07T20:36:46.632Z,23.03
2023-12-07T20:39:13.201Z,22.67
2023-12-07T20:41:39.666Z,20.73
2023-12-07T20:44:07.873Z,21.23
2023-12-07T20:46:34.382Z,23.73
2023-12-07T20:49:01.062Z,23.13
2023-12-07T20:51:27.756Z,23.67
2023-12-07T20:53:54.257Z,23.10
2023-12-07T20:56:22.248Z,24.10
2023-12-07T20:58:49.778Z,23.23
2023-12-07T21:01:16.313Z,22.03
2023-12-07T21:03:42.895Z,23.20
2023-12-07T21:06:25.434Z,26.57
2023-12-07T21:08:53.750Z,23.83
2023-12-07T21:11:20.330Z,24.07
2023-12-07T21:13:46.845Z,25.40
2023-12-07T21:16:13.365Z,22.57
2023-12-07T21:18:39.919Z,23.60
2023-12-07T21:21:06.773Z,23.47
2023-12-07T21:23:33.198Z,23.00
2023-12-07T21:26:01.160Z,23.23
2023-12-07T21:28:27.596Z,24.20
2023-12-07T21:30:54.015Z,24.60
2023-12-07T21:33:21.487Z,23.30
2023-12-07T21:35:48.114Z,24.83
2023-12-07T21:38:14.771Z,25.60
2023-12-07T21:40:41.263Z,25.47
2023-12-07T21:43:07.828Z,23.83
2023-12-07T21:45:35.450Z,24.77
2023-12-07T21:48:02.367Z,25.40
2023-12-07T21:50:28.983Z,23.20
2023-12-07T21:52:55.402Z,26.53
2023-12-07T21:55:21.820Z,24.43
2023-12-07T21:57:48.253Z,25.50
2023-12-07T22:00:17.026Z,24.27
2023-12-07T22:02:43.520Z,24.07
2023-12-07T22:05:09.983Z,23.80
2023-12-07T22:07:36.400Z,23.37
2023-12-07T22:10:13.681Z,25.40
2023-12-07T22:12:45.024Z,24.10
2023-12-07T22:15:14.573Z,24.40
2023-12-07T22:17:41.303Z,24.60
2023-12-07T22:20:11.610Z,23.90
2023-12-07T22:22:38.482Z,22.83
2023-12-07T22:25:05.644Z,24.20
2023-12-07T22:27:33.066Z,25.70
2023-12-07T22:29:59.558Z,25.30
2023-12-07T22:32:26.122Z,24.13
2023-12-07T22:34:52.908Z,23.50
2023-12-07T22:37:19.754Z,22.40
2023-12-07T22:39:46.200Z,23.80
2023-12-07T22:42:12.727Z,24.03
2023-12-07T22:44:39.404Z,25.23
2023-12-07T22:47:05.885Z,23.57
2023-12-07T22:49:32.772Z,24.07
2023-12-07T22:51:59.471Z,25.17
2023-12-07T22:54:28.919Z,26.53
2023-12-07T22:56:55.346Z,26.83
2023-12-07T22:59:21.751Z,24.43
2023-12-07T23:01:48.179Z,25.03
2023-12-07T23:04:14.689Z,25.60
2023-12-07T23:06:41.865Z,26.07
2023-12-07T23:09:08.350Z,24.00
2023-12-07T23:11:34.832Z,25.80
2023-12-07T23:14:01.290Z,24.27
2023-12-07T23:16:28.273Z,24.60
2023-12-07T23:18:54.990Z,26.27
2023-12-07T23:21:22.613Z,23.70
2023-12-07T23:23:49.208Z,26.80
2023-12-07T23:26:16.459Z,25.50
2023-12-07T23:28:43.132Z,24.73
2023-12-07T23:31:09.662Z,25.90
2023-12-07T23:33:36.181Z,25.67
2023-12-07T23:36:02.833Z,25.27
2023-12-07T23:38:29.420Z,24.60
2023-12-07T23:40:55.852Z,27.23
2023-12-07T23:43:22.976Z,30.63
2023-12-07T23:45:49.535Z,26.40
2023-12-07T23:48:16.145Z,25.60
2023-12-07T23:50:42.756Z,25.00
2023-12-07T23:53:09.230Z,23.63
2023-12-07T23:55:35.701Z,24.07
2023-12-07T23:58:02.281Z,25.83
